createdAt,value
2019-03-26T00:02:13.485Z,7.80
2019-03-26T00:04:41.593Z,7.80
2019-03-26T00:07:09.537Z,7.80
2019-03-26T00:09:37.367Z,7.80
2019-03-26T00:12:05.224Z,7.80
2019-03-26T00:14:33.203Z,7.80
2019-03-26T00:17:01.031Z,7.70
2019-03-26T00:19:29.114Z,7.70
2019-03-26T00:21:56.944Z,7.80
2019-03-26T00:24:24.899Z,7.80
2019-03-26T00:26:53.312Z,7.80
2019-03-26T00:29:21.472Z,7.80
2019-03-26T00:31:49.313Z,7.80
2019-03-26T00:34:19.627Z,7.80
2019-03-26T00:36:46.999Z,7.80
2019-03-26T00:39:15.280Z,7.80
2019-03-26T00:41:43.399Z,7.80
2019-03-26T00:44:11.541Z,7.80
2019-03-26T00:46:39.708Z,7.80
2019-03-26T00:49:08.122Z,7.80
2019-03-26T00:51:35.967Z,7.90
2019-03-26T00:54:03.813Z,7.80
2019-03-26T00:56:31.731Z,7.70
2019-03-26T00:58:59.698Z,7.80
2019-03-26T01:01:27.731Z,7.70
2019-03-26T01:03:56.143Z,7.70
2019-03-26T01:06:24.007Z,7.70
2019-03-26T01:08:51.942Z,7.70
2019-03-26T01:11:19.844Z,7.70
2019-03-26T01:13:47.920Z,7.60
2019-03-26T01:16:15.751Z,7.60
2019-03-26T01:18:43.590Z,7.60
2019-03-26T01:21:11.399Z,7.60
2019-03-26T01:23:39.223Z,7.60
2019-03-26T01:26:07.127Z,7.60
2019-03-26T01:28:35.339Z,7.60
2019-03-26T01:31:03.175Z,7.60
2019-03-26T01:33:31.416Z,7.60
2019-03-26T01:35:59.227Z,7.60
2019-03-26T01:38:27.329Z,7.60
2019-03-26T01:40:55.139Z,7.50
2019-03-26T01:43:22.998Z,7.60
2019-03-26T01:45:50.804Z,7.60
2019-03-26T01:48:18.649Z,7.60
2019-03-26T01:50:46.786Z,7.60
2019-03-26T01:53:15.045Z,7.60
2019-03-26T01:55:42.974Z,7.60
2019-03-26T01:58:10.822Z,7.60
2019-03-26T02:00:39.018Z,7.50
2019-03-26T02:03:06.862Z,7.50
2019-03-26T02:05:34.781Z,7.40
2019-03-26T02:08:02.964Z,7.50
2019-03-26T02:10:30.890Z,7.50
2019-03-26T02:12:58.749Z,7.40
2019-03-26T02:15:28.192Z,7.40
2019-03-26T02:17:56.048Z,7.40
2019-03-26T02:20:24.002Z,7.40
2019-03-26T02:22:51.845Z,7.40
2019-03-26T02:25:19.953Z,7.40
2019-03-26T02:27:47.779Z,7.40
2019-03-26T02:30:15.613Z,7.30
2019-03-26T02:32:43.545Z,7.30
2019-03-26T02:35:18.243Z,7.30
2019-03-26T02:37:41.428Z,7.20
2019-03-26T02:40:09.718Z,7.20
2019-03-26T02:42:37.534Z,7.20
2019-03-26T02:45:05.809Z,7.20
2019-03-26T02:47:33.717Z,7.20
2019-03-26T02:50:01.562Z,7.20
2019-03-26T02:52:30.211Z,7.20
2019-03-26T02:54:58.076Z,7.20
2019-03-26T02:57:26.111Z,7.20
2019-03-26T02:59:54.311Z,7.20
2019-03-26T03:02:22.459Z,7.20
2019-03-26T03:04:50.275Z,7.10
2019-03-26T03:07:18.102Z,7.10
2019-03-26T03:09:46.228Z,7.10
2019-03-26T03:12:14.408Z,7.10
2019-03-26T03:14:42.376Z,7.10
2019-03-26T03:17:10.348Z,7.10
2019-03-26T03:19:38.165Z,7.10
2019-03-26T03:22:06.005Z,7.10
2019-03-26T03:24:33.842Z,7.10
2019-03-26T03:27:01.922Z,7.10
2019-03-26T03:29:29.798Z,7.10
2019-03-26T03:31:58.003Z,7.10
2019-03-26T03:34:25.953Z,7.10
2019-03-26T03:36:54.107Z,7.10
2019-03-26T03:39:21.950Z,7.00
2019-03-26T03:41:50.143Z,7.00
2019-03-26T03:44:18.001Z,6.90
2019-03-26T03:46:48.358Z,6.90
2019-03-26T03:49:19.940Z,6.90
2019-03-26T03:51:50.073Z,6.80
2019-03-26T03:54:18.739Z,6.80
2019-03-26T03:56:49.449Z,6.80
2019-03-26T03:59:17.671Z,6.80
2019-03-26T04:01:45.503Z,6.70
2019-03-26T04:04:13.547Z,6.70
2019-03-26T04:06:41.659Z,6.60
2019-03-26T04:09:10.092Z,6.50
2019-03-26T04:11:38.253Z,6.50
2019-03-26T04:14:06.291Z,6.50
2019-03-26T04:16:34.208Z,6.40
2019-03-26T04:19:02.300Z,6.20
2019-03-26T04:21:30.517Z,6.20
2019-03-26T04:23:58.446Z,6.10
2019-03-26T04:26:26.264Z,6.00
2019-03-26T04:28:54.516Z,5.90
2019-03-26T04:31:22.345Z,5.80
2019-03-26T04:33:50.162Z,5.80
2019-03-26T04:36:25.297Z,5.80
2019-03-26T04:38:47.957Z,5.70
2019-03-26T04:41:15.801Z,5.60
2019-03-26T04:43:43.650Z,5.50
2019-03-26T04:46:11.834Z,5.40
2019-03-26T04:48:39.659Z,5.40
2019-03-26T04:51:07.748Z,5.50
2019-03-26T04:53:36.215Z,5.50
2019-03-26T04:56:04.121Z,5.60
2019-03-26T04:58:31.966Z,5.60
2019-03-26T05:00:59.922Z,5.90
2019-03-26T05:03:27.884Z,6.10
2019-03-26T05:05:55.918Z,6.20
2019-03-26T05:08:24.051Z,6.20
2019-03-26T05:10:51.894Z,6.30
2019-03-26T05:13:19.860Z,6.30
2019-03-26T05:15:48.064Z,6.30
2019-03-26T05:18:16.254Z,6.10
2019-03-26T05:20:44.884Z,6.10
2019-03-26T05:23:12.690Z,6.10
2019-03-26T05:25:40.532Z,6.00
2019-03-26T05:28:08.691Z,6.10
2019-03-26T05:30:36.796Z,6.20
2019-03-26T05:33:04.631Z,6.20
2019-03-26T05:35:32.755Z,6.20
2019-03-26T05:38:02.404Z,6.30
2019-03-26T05:40:30.335Z,6.30
2019-03-26T05:42:58.726Z,6.30
2019-03-26T05:45:26.643Z,6.40
2019-03-26T05:47:54.550Z,6.40
2019-03-26T05:50:22.400Z,6.40
2019-03-26T05:52:50.535Z,6.40
2019-03-26T05:55:19.032Z,6.40
2019-03-26T05:57:47.227Z,6.50
2019-03-26T06:00:19.561Z,6.50
2019-03-26T06:02:47.428Z,6.50
2019-03-26T06:05:15.318Z,6.50
2019-03-26T06:07:43.230Z,6.50
2019-03-26T06:10:11.192Z,6.50
2019-03-26T06:12:39.145Z,6.50
2019-03-26T06:15:07.830Z,6.50
2019-03-26T06:17:35.849Z,6.60
2019-03-26T06:20:04.191Z,6.80
2019-03-26T06:22:32.430Z,6.80
2019-03-26T06:25:00.376Z,6.80
2019-03-26T06:27:28.289Z,6.90
2019-03-26T06:29:56.411Z,6.90
2019-03-26T06:32:24.517Z,6.90
2019-03-26T06:34:52.460Z,7.00
2019-03-26T06:37:20.285Z,7.10
2019-03-26T06:39:48.109Z,7.20
2019-03-26T06:42:16.026Z,7.20
2019-03-26T06:44:44.139Z,7.30
2019-03-26T06:47:12.000Z,7.30
2019-03-26T06:49:39.939Z,7.40
2019-03-26T06:52:07.857Z,7.50
2019-03-26T06:54:35.694Z,7.60
2019-03-26T06:57:06.880Z,7.90
2019-03-26T06:59:35.618Z,8.30
2019-03-26T07:02:03.457Z,8.50
2019-03-26T07:04:31.915Z,8.70
2019-03-26T07:06:59.727Z,8.70
2019-03-26T07:09:27.590Z,8.80
2019-03-26T07:11:56.145Z,8.80
2019-03-26T07:14:24.310Z,8.80
2019-03-26T07:16:52.173Z,8.80
2019-03-26T07:19:22.463Z,8.80
2019-03-26T07:21:50.415Z,8.80
2019-03-26T07:24:18.306Z,8.80
2019-03-26T07:26:46.156Z,8.70
2019-03-26T07:29:14.057Z,8.70
2019-03-26T07:31:43.100Z,8.70
2019-03-26T07:34:10.969Z,8.80
2019-03-26T07:36:38.813Z,8.90
2019-03-26T07:39:06.897Z,8.90
2019-03-26T07:41:34.862Z,8.90
2019-03-26T07:44:02.950Z,8.80
2019-03-26T07:46:30.799Z,8.80
2019-03-26T07:48:58.637Z,8.90
2019-03-26T07:51:26.576Z,8.90
2019-03-26T07:53:54.726Z,8.90
2019-03-26T07:56:22.547Z,8.80
2019-03-26T07:58:50.522Z,8.80
2019-03-26T08:01:18.989Z,8.90
2019-03-26T08:03:47.197Z,9.00
2019-03-26T08:06:15.033Z,9.10
2019-03-26T08:08:42.903Z,9.30
2019-03-26T08:11:10.717Z,9.70
2019-03-26T08:13:40.952Z,10.00
2019-03-26T08:16:08.555Z,10.10
2019-03-26T08:18:36.427Z,10.30
2019-03-26T08:21:04.705Z,10.30
2019-03-26T08:23:32.645Z,10.10
2019-03-26T08:26:01.709Z,9.70
2019-03-26T08:28:29.680Z,9.60
2019-03-26T08:30:57.527Z,9.60
2019-03-26T08:33:25.376Z,9.50
2019-03-26T08:35:53.230Z,9.50
2019-03-26T08:38:21.102Z,9.70
2019-03-26T08:40:50.856Z,9.80
2019-03-26T08:43:18.821Z,9.70
2019-03-26T08:45:46.983Z,9.80
2019-03-26T08:48:15.211Z,9.80
2019-03-26T08:50:43.083Z,9.80
2019-03-26T08:53:14.038Z,9.90
2019-03-26T08:55:42.153Z,10.00
2019-03-26T08:58:10.343Z,10.30
2019-03-26T09:00:38.198Z,10.30
2019-03-26T09:03:06.391Z,10.20
2019-03-26T09:05:34.247Z,10.20
2019-03-26T09:08:02.685Z,10.20
2019-03-26T09:10:30.785Z,10.30
2019-03-26T09:12:58.664Z,10.30
2019-03-26T09:15:26.590Z,10.40
2019-03-26T09:17:56.379Z,10.50
2019-03-26T09:20:24.560Z,10.70
2019-03-26T09:22:52.539Z,10.70
2019-03-26T09:25:22.434Z,10.70
2019-03-26T09:27:52.506Z,10.80
2019-03-26T09:30:20.511Z,10.70
2019-03-26T09:32:51.376Z,10.70
2019-03-26T09:35:19.229Z,10.70
2019-03-26T09:37:48.062Z,10.80
2019-03-26T09:40:16.128Z,11.30
2019-03-26T09:42:46.121Z,11.70
2019-03-26T09:45:14.717Z,11.80
2019-03-26T09:47:43.756Z,12.30
2019-03-26T09:50:12.022Z,12.00
2019-03-26T09:52:39.976Z,12.10
2019-03-26T09:55:08.419Z,12.20
2019-03-26T09:57:36.472Z,12.10
2019-03-26T10:00:05.635Z,12.30
2019-03-26T10:02:33.484Z,12.00
2019-03-26T10:05:01.446Z,11.90
2019-03-26T10:07:29.489Z,11.80
2019-03-26T10:09:58.002Z,11.80
2019-03-26T10:12:25.958Z,11.70
2019-03-26T10:14:53.954Z,11.50
2019-03-26T10:17:22.108Z,11.20
2019-03-26T10:19:50.865Z,11.50
2019-03-26T10:22:20.128Z,11.70
2019-03-26T10:24:48.194Z,11.70
2019-03-26T10:27:16.088Z,11.80
2019-03-26T10:29:44.031Z,12.10
2019-03-26T10:32:12.087Z,12.40
2019-03-26T10:34:39.957Z,12.40
2019-03-26T10:37:07.901Z,12.50
2019-03-26T10:39:36.100Z,12.60
2019-03-26T10:42:06.918Z,13.10
2019-03-26T10:44:34.060Z,13.60
2019-03-26T10:47:02.036Z,13.60
2019-03-26T10:49:30.221Z,13.50
2019-03-26T10:51:58.150Z,14.10
2019-03-26T10:54:26.010Z,14.50
2019-03-26T10:56:53.841Z,15.30
2019-03-26T10:59:22.007Z,15.20
2019-03-26T11:01:50.338Z,16.40
2019-03-26T11:04:18.299Z,17.30
2019-03-26T11:06:46.396Z,18.50
2019-03-26T11:09:23.302Z,18.80
2019-03-26T11:11:44.313Z,19.10
2019-03-26T11:14:12.224Z,18.60
2019-03-26T11:16:40.105Z,18.00
2019-03-26T11:19:08.020Z,17.30
2019-03-26T11:21:35.860Z,16.30
2019-03-26T11:24:03.701Z,15.30
2019-03-26T11:26:31.559Z,14.50
2019-03-26T11:28:59.438Z,14.40
2019-03-26T11:31:30.131Z,14.20
2019-03-26T11:33:57.572Z,13.50
2019-03-26T11:36:25.443Z,13.30
2019-03-26T11:38:53.266Z,13.40
2019-03-26T11:41:22.406Z,13.30
2019-03-26T11:43:50.297Z,13.10
2019-03-26T11:46:18.122Z,12.90
2019-03-26T11:48:46.083Z,12.50
2019-03-26T11:51:14.412Z,12.30
2019-03-26T11:53:42.667Z,12.10
2019-03-26T11:56:10.823Z,12.00
2019-03-26T11:58:38.672Z,12.40
2019-03-26T12:01:06.516Z,12.50
2019-03-26T12:03:34.661Z,12.40
2019-03-26T12:06:02.798Z,12.20
2019-03-26T12:08:30.932Z,11.90
2019-03-26T12:10:58.819Z,12.10
2019-03-26T12:13:27.068Z,12.30
2019-03-26T12:15:54.946Z,14.40
2019-03-26T12:18:22.892Z,15.40
2019-03-26T12:20:51.023Z,15.30
2019-03-26T12:23:18.885Z,14.80
2019-03-26T12:25:46.828Z,14.40
2019-03-26T12:28:14.849Z,14.50
2019-03-26T12:30:43.082Z,14.40
2019-03-26T12:33:11.136Z,13.70
2019-03-26T12:35:39.343Z,13.30
2019-03-26T12:38:17.760Z,13.00
2019-03-26T12:40:45.823Z,12.70
2019-03-26T12:43:13.740Z,12.60
2019-03-26T12:45:42.197Z,12.70
2019-03-26T12:48:10.045Z,12.60
2019-03-26T12:50:38.140Z,12.40
2019-03-26T12:53:06.108Z,12.90
2019-03-26T12:55:34.248Z,12.60
2019-03-26T12:58:02.420Z,12.70
2019-03-26T13:00:33.169Z,12.80
2019-03-26T13:03:02.822Z,12.70
2019-03-26T13:05:30.743Z,12.70
2019-03-26T13:07:58.587Z,12.60
2019-03-26T13:10:26.529Z,12.20
2019-03-26T13:12:54.351Z,12.60
2019-03-26T13:15:22.228Z,13.10
2019-03-26T13:17:50.114Z,13.60
2019-03-26T13:20:18.267Z,15.20
2019-03-26T13:22:46.365Z,17.50
2019-03-26T13:25:14.215Z,20.30
2019-03-26T13:27:42.502Z,18.50
2019-03-26T13:30:10.768Z,16.80
2019-03-26T13:32:38.639Z,16.40
2019-03-26T13:35:06.861Z,18.40
2019-03-26T13:37:34.779Z,19.00
2019-03-26T13:40:03.127Z,18.40
2019-03-26T13:42:31.292Z,19.50
2019-03-26T13:45:00.041Z,20.20
2019-03-26T13:47:28.465Z,22.00
2019-03-26T13:49:56.698Z,22.60
2019-03-26T13:52:24.906Z,22.20
2019-03-26T13:54:52.776Z,20.50
2019-03-26T13:57:20.651Z,20.70
2019-03-26T13:59:49.166Z,21.40
2019-03-26T14:02:17.472Z,22.30
2019-03-26T14:04:45.721Z,23.50
2019-03-26T14:07:13.578Z,23.60
2019-03-26T14:09:41.454Z,23.50
2019-03-26T14:12:09.638Z,21.00
2019-03-26T14:14:37.588Z,18.90
2019-03-26T14:17:05.870Z,18.30
2019-03-26T14:19:33.852Z,17.60
2019-03-26T14:22:01.981Z,16.70
2019-03-26T14:24:29.951Z,16.10
2019-03-26T14:26:57.993Z,16.00
2019-03-26T14:29:26.120Z,15.60
2019-03-26T14:31:54.371Z,15.60
2019-03-26T14:34:22.484Z,16.30
2019-03-26T14:36:52.120Z,16.80
2019-03-26T14:39:19.976Z,18.40
2019-03-26T14:41:49.762Z,20.40
2019-03-26T14:44:18.286Z,20.70
2019-03-26T14:46:46.198Z,19.90
2019-03-26T14:49:14.487Z,18.30
2019-03-26T14:51:42.444Z,17.90
2019-03-26T14:54:10.267Z,17.80
2019-03-26T14:56:39.233Z,17.20
2019-03-26T14:59:07.179Z,17.80
2019-03-26T15:01:35.390Z,18.50
2019-03-26T15:04:03.623Z,20.40
2019-03-26T15:06:31.567Z,21.20
2019-03-26T15:09:01.308Z,20.20
2019-03-26T15:11:29.242Z,21.30
2019-03-26T15:13:57.141Z,20.30
2019-03-26T15:16:25.010Z,17.80
2019-03-26T15:18:52.874Z,16.80
2019-03-26T15:21:20.797Z,16.30
2019-03-26T15:23:48.632Z,15.50
2019-03-26T15:26:16.592Z,15.40
2019-03-26T15:28:44.508Z,14.90
2019-03-26T15:31:12.469Z,14.70
2019-03-26T15:33:40.307Z,14.50
2019-03-26T15:36:08.245Z,14.60
2019-03-26T15:38:36.446Z,14.70
2019-03-26T15:41:04.701Z,15.10
2019-03-26T15:43:32.663Z,15.30
2019-03-26T15:46:00.631Z,15.40
2019-03-26T15:48:28.876Z,15.20
2019-03-26T15:50:56.711Z,15.40
2019-03-26T15:53:24.838Z,15.10
2019-03-26T15:55:52.808Z,14.80
2019-03-26T15:58:20.791Z,14.60
2019-03-26T16:00:48.771Z,14.50
2019-03-26T16:03:16.794Z,14.20
2019-03-26T16:05:44.764Z,14.10
2019-03-26T16:08:13.308Z,14.10
2019-03-26T16:10:41.571Z,14.00
2019-03-26T16:13:09.536Z,13.70
2019-03-26T16:15:44.239Z,13.90
2019-03-26T16:18:07.222Z,14.10
2019-03-26T16:20:35.091Z,14.00
2019-03-26T16:23:03.027Z,13.90
2019-03-26T16:25:31.196Z,13.40
2019-03-26T16:27:59.152Z,12.90
2019-03-26T16:30:27.251Z,12.90
2019-03-26T16:32:56.308Z,12.80
2019-03-26T16:35:24.229Z,12.80
2019-03-26T16:37:52.095Z,12.80
2019-03-26T16:40:20.046Z,13.10
2019-03-26T16:42:47.990Z,13.50
2019-03-26T16:45:16.330Z,13.70
2019-03-26T16:47:44.216Z,13.50
2019-03-26T16:50:12.529Z,13.10
2019-03-26T16:52:40.741Z,12.70
2019-03-26T16:55:08.840Z,12.30
2019-03-26T16:57:36.806Z,12.30
2019-03-26T17:00:05.711Z,12.20
2019-03-26T17:02:34.215Z,12.00
2019-03-26T17:05:02.072Z,11.90
2019-03-26T17:07:30.374Z,11.90
2019-03-26T17:09:58.315Z,11.90
2019-03-26T17:12:26.434Z,11.70
2019-03-26T17:14:54.395Z,11.60
2019-03-26T17:17:22.641Z,11.50
2019-03-26T17:19:50.786Z,11.30
2019-03-26T17:22:18.666Z,11.20
2019-03-26T17:24:46.532Z,11.10
2019-03-26T17:27:14.609Z,11.10
2019-03-26T17:29:42.518Z,10.90
2019-03-26T17:32:10.444Z,10.80
2019-03-26T17:34:38.285Z,10.70
2019-03-26T17:37:06.231Z,10.60
2019-03-26T17:39:34.205Z,10.60
2019-03-26T17:42:16.258Z,10.50
2019-03-26T17:44:32.837Z,10.50
2019-03-26T17:47:00.733Z,10.50
2019-03-26T17:49:28.941Z,10.40
2019-03-26T17:51:56.906Z,10.40
2019-03-26T17:54:25.082Z,10.40
2019-03-26T17:56:53.089Z,10.40
2019-03-26T17:59:21.639Z,10.30
2019-03-26T18:01:49.615Z,10.30
2019-03-26T18:04:17.478Z,10.20
2019-03-26T18:06:46.676Z,10.10
2019-03-26T18:09:14.855Z,10.10
2019-03-26T18:11:42.836Z,10.20
2019-03-26T18:14:10.783Z,10.10
2019-03-26T18:16:38.752Z,10.00
2019-03-26T18:19:06.693Z,9.90
2019-03-26T18:21:34.530Z,9.90
2019-03-26T18:24:02.686Z,9.80
2019-03-26T18:26:30.649Z,9.80
2019-03-26T18:28:58.600Z,9.70
2019-03-26T18:31:26.984Z,9.60
2019-03-26T18:33:54.879Z,9.50
2019-03-26T18:36:23.451Z,9.40
2019-03-26T18:38:51.476Z,9.30
2019-03-26T18:41:19.347Z,9.30
2019-03-26T18:43:47.277Z,9.20
2019-03-26T18:46:15.657Z,9.20
2019-03-26T18:48:43.512Z,9.20
2019-03-26T18:51:11.397Z,9.20
2019-03-26T18:53:39.281Z,9.20
2019-03-26T18:56:07.243Z,9.10
2019-03-26T18:58:35.480Z,9.10
2019-03-26T19:01:03.483Z,9.00
2019-03-26T19:03:31.429Z,8.90
2019-03-26T19:05:59.555Z,8.90
2019-03-26T19:08:27.777Z,8.80
2019-03-26T19:10:56.036Z,8.80
2019-03-26T19:13:23.940Z,8.80
2019-03-26T19:15:52.093Z,8.70
2019-03-26T19:18:20.371Z,8.70
2019-03-26T19:21:01.468Z,8.70
2019-03-26T19:23:18.671Z,8.70
2019-03-26T19:25:46.612Z,8.60
2019-03-26T19:28:14.540Z,8.60
2019-03-26T19:30:42.460Z,8.60
2019-03-26T19:33:10.333Z,8.50
2019-03-26T19:35:38.182Z,8.40
2019-03-26T19:38:06.119Z,8.50
2019-03-26T19:40:34.014Z,8.40
2019-03-26T19:43:10.897Z,8.40
2019-03-26T19:45:31.861Z,8.30
2019-03-26T19:48:00.086Z,8.20
2019-03-26T19:50:27.993Z,8.30
2019-03-26T19:52:56.241Z,8.20
2019-03-26T19:55:24.205Z,8.20
2019-03-26T19:57:52.422Z,8.10
2019-03-26T20:00:21.287Z,8.10
2019-03-26T20:02:49.503Z,8.10
2019-03-26T20:05:17.414Z,8.00
2019-03-26T20:07:45.694Z,8.00
2019-03-26T20:10:14.454Z,7.90
2019-03-26T20:12:43.056Z,7.90
2019-03-26T20:15:13.132Z,7.90
2019-03-26T20:17:41.008Z,7.80
2019-03-26T20:20:11.953Z,7.90
2019-03-26T20:22:39.771Z,7.80
2019-03-26T20:25:08.063Z,7.80
2019-03-26T20:27:37.178Z,7.80
2019-03-26T20:30:06.614Z,7.80
2019-03-26T20:32:34.543Z,7.80
2019-03-26T20:35:02.650Z,7.80
2019-03-26T20:37:30.744Z,7.80
2019-03-26T20:39:58.563Z,7.90
2019-03-26T20:42:26.415Z,7.90
2019-03-26T20:44:54.385Z,8.00
2019-03-26T20:47:22.508Z,8.10
2019-03-26T20:49:50.659Z,8.10
2019-03-26T20:52:18.569Z,8.10
2019-03-26T20:54:46.423Z,8.10
2019-03-26T20:57:14.908Z,8.10
2019-03-26T20:59:42.825Z,8.20
2019-03-26T21:02:11.392Z,8.20
2019-03-26T21:04:39.372Z,8.20
2019-03-26T21:07:07.196Z,8.20
2019-03-26T21:09:35.162Z,8.30
2019-03-26T21:12:03.020Z,8.20
2019-03-26T21:14:30.883Z,8.20
2019-03-26T21:16:58.821Z,8.20
2019-03-26T21:19:26.826Z,8.30
2019-03-26T21:21:56.642Z,8.30
2019-03-26T21:24:25.821Z,8.30
2019-03-26T21:26:55.462Z,8.30
2019-03-26T21:29:23.726Z,8.40
2019-03-26T21:31:51.582Z,8.40
2019-03-26T21:34:29.847Z,8.40
2019-03-26T21:36:49.617Z,8.40
2019-03-26T21:39:17.643Z,8.40
2019-03-26T21:41:45.573Z,8.40
2019-03-26T21:44:13.584Z,8.40
2019-03-26T21:46:41.531Z,8.40
2019-03-26T21:49:09.506Z,8.40
2019-03-26T21:51:37.365Z,8.40
2019-03-26T21:54:07.311Z,8.40
2019-03-26T21:56:35.100Z,8.40
2019-03-26T21:59:03.063Z,8.40
2019-03-26T22:01:30.900Z,8.40
2019-03-26T22:03:59.036Z,8.40
2019-03-26T22:06:26.908Z,8.40
2019-03-26T22:08:54.860Z,8.40
2019-03-26T22:11:22.701Z,8.40
2019-03-26T22:13:50.657Z,8.40
2019-03-26T22:16:18.518Z,8.40
2019-03-26T22:18:46.710Z,8.40
2019-03-26T22:21:14.971Z,8.40
2019-03-26T22:23:42.835Z,8.40
2019-03-26T22:26:11.151Z,8.40
2019-03-26T22:28:39.214Z,8.40
2019-03-26T22:31:07.044Z,8.40
2019-03-26T22:33:35.160Z,8.50
2019-03-26T22:36:03.318Z,8.50
2019-03-26T22:38:33.717Z,8.50
2019-03-26T22:41:02.150Z,8.50
2019-03-26T22:43:30.075Z,8.40
2019-03-26T22:45:58.210Z,8.40
2019-03-26T22:48:26.345Z,8.30
2019-03-26T22:50:54.288Z,8.30
2019-03-26T22:53:22.228Z,8.20
2019-03-26T22:55:50.099Z,8.20
2019-03-26T22:58:17.921Z,8.10
2019-03-26T23:00:46.877Z,8.10
2019-03-26T23:03:14.827Z,8.00
2019-03-26T23:05:42.764Z,8.00
2019-03-26T23:08:10.637Z,8.00
2019-03-26T23:10:39.803Z,8.00
2019-03-26T23:13:07.813Z,8.00
2019-03-26T23:15:35.977Z,8.10
2019-03-26T23:18:03.893Z,8.10
2019-03-26T23:20:31.752Z,8.10
2019-03-26T23:23:00.425Z,8.10
2019-03-26T23:25:28.982Z,8.10
2019-03-26T23:27:56.889Z,8.10
2019-03-26T23:30:24.733Z,8.10
2019-03-26T23:32:53.766Z,8.20
2019-03-26T23:35:21.612Z,8.20
2019-03-26T23:37:49.564Z,8.20
2019-03-26T23:40:20.415Z,8.10
2019-03-26T23:42:48.522Z,8.10
2019-03-26T23:45:18.486Z,8.10
2019-03-26T23:47:46.415Z,8.00
2019-03-26T23:50:15.867Z,7.90
2019-03-26T23:52:46.295Z,7.80
2019-03-26T23:55:14.729Z,7.70
2019-03-26T23:57:46.272Z,7.60
